Aérodrome :
LOGIN :

S'inscrire | Disclaimer

   EN    FR    IT 

 










Légende :    VFR   VFR Marginal   IFR   IFR Intensif   IFR Très Intensif
Visi : 
Plafond : 
>= 8 km
>= 3000ft
5 à 8 km
1000 à 3000 ft
1500m à 5 km
500 à 1000 ft
800 à 1500m
200 à 500 ft
< 800m
< 200 ft
Symboles :   Orages  Brouillard  Fortes neiges  Fortes précipitations  Vent > 20 kt
SIGMETs :   Divers  Orages  Givrage  Turbulence  Onde Orograph.  Cendres Volcan.







- Altitude de l'aérodrome : 12 ft
- Code IATA : BCN


LEBL - Barcelone

DERNIER METAR :
  • 270600Z 29006KT 240V350 5000 BR FEW019 15/13 Q1012 NOSIG

METARs EXPIRÉS :
  • 270530Z 25008KT 240V300 6000 FEW025 14/13 Q1012 NOSIG
  • 270500Z 26008KT 9000 FEW025 14/13 Q1012 NOSIG
  • 270430Z 22004KT 9000 FEW025 15/13 Q1012 NOSIG
  • 270400Z 23005KT 210V270 9999 FEW025 14/12 Q1012 NOSIG
  • 270330Z 28003KT 240V340 9999 FEW025 15/12 Q1012 NOSIG

TAF TAF LEBL
Valide du 27 à 06h jusqu'au 28 à 06h UTC


270500Z 2706/2806 24009KT 9999 FEW030 TX22/2712Z TN15/2706Z
TEMPO 2710/2716 20012G24KT
PROB40
TEMPO 2712/2723 FEW030CB
PROB30
TEMPO 2723/2724 3000 SHRA FEW040CB
Pas de NOTAMs connus pour ce terrain.



MET'MAP, la Météo Aéronautique d'un coup d'oeil ! - Copyright ORBIFLY Décembre 2007 - Disclaimer

ORBIFLY MET'MAP TEAM :

Programmation & Développement : Alexandra Zaïnal
Conception & Développement : Baudouin d'Aumeries
Co-Programmation & Développement : Marc-Olivier Méhu
Soutien technique & logistique : Manuel Goepfert

Contact : metmap@orbifly.com




SOURCES & CREDITS :

   NOAA